No particular awareness of the weather is required.    There are no Weather-warnings


Meteo18 Weather Cam more information Meteo18 Weather Cam


Thunder radar more information blitzortung!


Rain radar more information rain snow radar


Visit our other weather sites:

Template documentation
and downloads

And another site



Weather Underground History page Text

Daily Summary for March 10, 2018 Units:  Both    English   Metric
« Previous Day
Next Day »
Daily Weekly Monthly Yearly Custom
  High: Low: Average:
Temperature: TemperatureC °F /  -17.8 °C 9.7 °F /  -12.4 °C 13.1 °F /  -10.5 °C
Dew Point: DewpointC °F /  -17.8 °C 7.7 °F /  -13.5 °C 10.4 °F /  -12 °C
Humidity: Humidity % 63 % 84 %
Wind Speed: WindSpeedKMH mph /  0 km/h - 4 mph /  6.4 km/h
Wind Gust: WindSpeedGustKMH mph /  0 km/h - -
Wind:- - South
Pressure: PressurehPa in /  0 hPa 998.2 in /  33799.1 hPa -
Precipitation: 10.9 in /  276.86 mm    
Historical Graphs
 
 
Tabular Data for March 10, 2018
Time Temperature Dew Point Pressure Wind Wind Speed Wind Gust Humidity Rainfall Rate (Hourly)
TemperatureC °F /  -17.8 °C DewpointC °F /  -17.8 °C PressurehPa in /  0 hPa Calm     Humidity % HourlyPrecipMM in /  0 mm
00:04 12.2 °F /  -11 °C 7.9 °F /  -13.4 °C 1003.9 in /  33992.1 hPa Calm   3.2 mph /  5.1 km/h 75 % 0.0 in /  0 mm
00:10 12.2 °F /  -11 °C 7.9 °F /  -13.4 °C 1003.9 in /  33992.1 hPa Calm     75 % 0.0 in /  0 mm
00:16 12.2 °F /  -11 °C 7.9 °F /  -13.4 °C 1003.9 in /  33992.1 hPa Calm     75 % 0.0 in /  0 mm
00:22 12.2 °F /  -11 °C 7.9 °F /  -13.4 °C 1003.9 in /  33992.1 hPa Calm   1.6 mph /  2.6 km/h 75 % 0.0 in /  0 mm
00:28 12.2 °F /  -11 °C 7.7 °F /  -13.5 °C 1003.9 in /  33992.1 hPa Calm     74 % 0.0 in /  0 mm
00:34 12.2 °F /  -11 °C 7.7 °F /  -13.5 °C 1003.9 in /  33992.1 hPa Calm   3.2 mph /  5.1 km/h 74 % 0.0 in /  0 mm
00:40 12.3 °F /  -10.9 °C 7.8 °F /  -13.4 °C 1003.9 in /  33992.1 hPa SE 1.4 mph /  2.3 km/h 6.4 mph /  10.3 km/h 74 % 0.0 in /  0 mm
00:46 12.4 °F /  -10.9 °C 7.9 °F /  -13.4 °C 1003.9 in /  33992.1 hPa Calm   1.6 mph /  2.6 km/h 74 % 0.0 in /  0 mm
00:52 12.3 °F /  -10.9 °C 7.8 °F /  -13.4 °C 1003.9 in /  33992.1 hPa SSE 4.7 mph /  7.6 km/h 4.8 mph /  7.7 km/h 74 % 0.0 in /  0 mm
00:58 12.2 °F /  -11 °C 7.9 °F /  -13.4 °C 1003.9 in /  33992.1 hPa SE 1.4 mph /  2.3 km/h 1.6 mph /  2.6 km/h 75 % 0.0 in /  0 mm
01:04 12.2 °F /  -11 °C 7.9 °F /  -13.4 °C 1003.6 in /  33981.9 hPa SE 1.4 mph /  2.3 km/h 3.2 mph /  5.1 km/h 75 % 0.0 in /  0 mm
01:10 12.2 °F /  -11 °C 7.9 °F /  -13.4 °C 1003.9 in /  33992.1 hPa SE 3.2 mph /  5.1 km/h 4.8 mph /  7.7 km/h 75 % 0.0 in /  0 mm
01:16 12.2 °F /  -11 °C 7.7 °F /  -13.5 °C 1003.6 in /  33981.9 hPa SE 1.4 mph /  2.3 km/h 3.2 mph /  5.1 km/h 74 % 0.0 in /  0 mm
01:22 12.1 °F /  -11.1 °C 7.8 °F /  -13.4 °C 1003.6 in /  33981.9 hPa SE 1.4 mph /  2.3 km/h 3.2 mph /  5.1 km/h 75 % 0.0 in /  0 mm
01:28 11.9 °F /  -11.2 °C 7.8 °F /  -13.4 °C 1003.6 in /  33981.9 hPa SE 3.2 mph /  5.1 km/h 8.0 mph /  12.9 km/h 76 % 0.0 in /  0 mm
01:34 11.9 °F /  -11.2 °C 7.8 °F /  -13.4 °C 1003.6 in /  33981.9 hPa SE 1.4 mph /  2.3 km/h 4.8 mph /  7.7 km/h 76 % 0.0 in /  0 mm
01:40 11.9 °F /  -11.2 °C 7.8 °F /  -13.4 °C 1003.6 in /  33981.9 hPa SSE 3.2 mph /  5.1 km/h 6.4 mph /  10.3 km/h 76 % 0.0 in /  0 mm
01:46 11.8 °F /  -11.2 °C 7.9 °F /  -13.4 °C 1003.6 in /  33981.9 hPa Calm   3.2 mph /  5.1 km/h 77 % 0.0 in /  0 mm
01:52 11.8 °F /  -11.2 °C 7.9 °F /  -13.4 °C 1003.6 in /  33981.9 hPa Calm   3.2 mph /  5.1 km/h 77 % 0.0 in /  0 mm
01:58 11.8 °F /  -11.2 °C 7.9 °F /  -13.4 °C 1003.6 in /  33981.9 hPa Calm   3.2 mph /  5.1 km/h 77 % 0.0 in /  0 mm
02:04 11.8 °F /  -11.2 °C 7.9 °F /  -13.4 °C 1003.6 in /  33981.9 hPa Calm   3.2 mph /  5.1 km/h 77 % 0.0 in /  0 mm
02:10 11.8 °F /  -11.2 °C 7.9 °F /  -13.4 °C 1003.6 in /  33981.9 hPa Calm   1.6 mph /  2.6 km/h 77 % 0.0 in /  0 mm
02:16 11.8 °F /  -11.2 °C 7.9 °F /  -13.4 °C 1003.6 in /  33981.9 hPa Calm   4.8 mph /  7.7 km/h 77 % 0.0 in /  0 mm
02:22 11.8 °F /  -11.2 °C 8.1 °F /  -13.3 °C 1003.6 in /  33981.9 hPa South 3.2 mph /  5.1 km/h 6.4 mph /  10.3 km/h 78 % 0.0 in /  0 mm
02:29 11.8 °F /  -11.2 °C 8.1 °F /  -13.3 °C 1003.6 in /  33981.9 hPa SE 1.4 mph /  2.3 km/h 4.8 mph /  7.7 km/h 78 % 0.0 in /  0 mm
02:35 11.8 °F /  -11.2 °C 8.1 °F /  -13.3 °C 1003.6 in /  33981.9 hPa Calm   4.8 mph /  7.7 km/h 78 % 0.0 in /  0 mm
02:41 11.7 °F /  -11.3 °C 8.0 °F /  -13.3 °C 1003.3 in /  33971.7 hPa SSE 3.2 mph /  5.1 km/h 3.2 mph /  5.1 km/h 78 % 0.0 in /  0 mm
02:47 11.7 °F /  -11.3 °C 8.0 °F /  -13.3 °C 1003.3 in /  33971.7 hPa SSE 1.4 mph /  2.3 km/h 3.2 mph /  5.1 km/h 78 % 0.0 in /  0 mm
02:53 11.7 °F /  -11.3 °C 8.2 °F /  -13.2 °C 1003.3 in /  33971.7 hPa SSE 1.4 mph /  2.3 km/h 4.8 mph /  7.7 km/h 79 % 0.0 in /  0 mm
02:59 11.6 °F /  -11.3 °C 8.1 °F /  -13.3 °C 1003.3 in /  33971.7 hPa SSE 1.4 mph /  2.3 km/h 8.0 mph /  12.9 km/h 79 % 0.0 in /  0 mm
03:05 11.6 °F /  -11.3 °C 8.1 °F /  -13.3 °C 1003.3 in /  33971.7 hPa South 3.2 mph /  5.1 km/h 6.4 mph /  10.3 km/h 79 % 0.0 in /  0 mm
03:11 11.6 °F /  -11.3 °C 8.3 °F /  -13.2 °C 1003.3 in /  33971.7 hPa SSE 4.7 mph /  7.6 km/h 11.3 mph /  18.2 km/h 80 % 0.0 in /  0 mm
03:17 11.6 °F /  -11.3 °C 8.3 °F /  -13.2 °C 1003.3 in /  33971.7 hPa SSE 6.4 mph /  10.3 km/h 9.7 mph /  15.6 km/h 80 % 0.0 in /  0 mm
03:23 11.5 °F /  -11.4 °C 8.4 °F /  -13.1 °C 1003.3 in /  33971.7 hPa SSE 1.4 mph /  2.3 km/h 6.4 mph /  10.3 km/h 81 % 0.0 in /  0 mm
03:29 11.4 °F /  -11.4 °C 8.4 °F /  -13.1 °C 1002.9 in /  33958.2 hPa SSE 6.4 mph /  10.3 km/h 11.3 mph /  18.2 km/h 82 % 0.0 in /  0 mm
03:35 11.2 °F /  -11.6 °C 8.4 °F /  -13.1 °C 1002.9 in /  33958.2 hPa SSE 3.2 mph /  5.1 km/h 6.4 mph /  10.3 km/h 83 % 0.0 in /  0 mm
03:41 11.1 °F /  -11.6 °C 8.5 °F /  -13.1 °C 1002.9 in /  33958.2 hPa SSE 3.2 mph /  5.1 km/h 8.0 mph /  12.9 km/h 84 % 0.0 in /  0 mm
03:47 11.0 °F /  -11.7 °C 8.6 °F /  -13 °C 1002.9 in /  33958.2 hPa SSE 3.2 mph /  5.1 km/h 9.7 mph /  15.6 km/h 85 % 0.0 in /  0 mm
03:53 10.8 °F /  -11.8 °C 8.7 °F /  -12.9 °C 1002.9 in /  33958.2 hPa East 11.1 mph /  17.9 km/h 14.5 mph /  23.3 km/h 87 % 0.3 in /  7.62 mm
03:59 10.5 °F /  -11.9 °C 8.8 °F /  -12.9 °C 1002.9 in /  33958.2 hPa SSE 1.4 mph /  2.3 km/h 9.7 mph /  15.6 km/h 89 % 0.5 in /  12.7 mm
04:05 10.3 °F /  -12.1 °C 8.7 °F /  -12.9 °C 1002.9 in /  33958.2 hPa ESE 3.2 mph /  5.1 km/h 3.2 mph /  5.1 km/h 90 % 0.8 in /  20.32 mm
04:11 10.2 °F /  -12.1 °C 8.8 °F /  -12.9 °C 1002.9 in /  33958.2 hPa Calm   6.4 mph /  10.3 km/h 91 % 1.0 in /  25.4 mm
04:17 10.1 °F /  -12.2 °C 8.9 °F /  -12.8 °C 1002.9 in /  33958.2 hPa Calm   6.4 mph /  10.3 km/h 92 % 1.3 in /  33.02 mm
04:23 10.1 °F /  -12.2 °C 8.9 °F /  -12.8 °C 1002.6 in /  33948 hPa SSE 1.4 mph /  2.3 km/h 4.8 mph /  7.7 km/h 92 % 1.5 in /  38.1 mm
04:29 10.0 °F /  -12.2 °C 8.9 °F /  -12.8 °C 1002.6 in /  33948 hPa Calm   3.2 mph /  5.1 km/h 93 % 1.5 in /  38.1 mm
04:35 9.9 °F /  -12.3 °C 8.8 °F /  -12.9 °C 1002.6 in /  33948 hPa SE 1.4 mph /  2.3 km/h 4.8 mph /  7.7 km/h 93 % 1.5 in /  38.1 mm
04:41 9.9 °F /  -12.3 °C 9.0 °F /  -12.8 °C 1002.6 in /  33948 hPa SSE 4.7 mph /  7.6 km/h 9.7 mph /  15.6 km/h 94 % 1.8 in /  45.72 mm
04:47 9.9 °F /  -12.3 °C 9.0 °F /  -12.8 °C 1002.3 in /  33937.9 hPa SSE 1.4 mph /  2.3 km/h 6.4 mph /  10.3 km/h 94 % 1.8 in /  45.72 mm
04:53 9.8 °F /  -12.3 °C 8.9 °F /  -12.8 °C 1002.3 in /  33937.9 hPa SSE 3.2 mph /  5.1 km/h 4.8 mph /  7.7 km/h 94 % 1.5 in /  38.1 mm
04:59 9.8 °F /  -12.3 °C 8.9 °F /  -12.8 °C 1002.3 in /  33937.9 hPa SE 1.4 mph /  2.3 km/h 4.8 mph /  7.7 km/h 94 % 1.5 in /  38.1 mm
05:05 9.9 °F /  -12.3 °C 9.1 °F /  -12.7 °C 1001.9 in /  33924.3 hPa SE 3.2 mph /  5.1 km/h 6.4 mph /  10.3 km/h 95 % 1.3 in /  33.02 mm
05:11 9.8 °F /  -12.3 °C 9.0 °F /  -12.8 °C 1001.9 in /  33924.3 hPa SW 3.2 mph /  5.1 km/h 3.2 mph /  5.1 km/h 95 % 1.0 in /  25.4 mm
05:17 9.9 °F /  -12.3 °C 9.1 °F /  -12.7 °C 1001.9 in /  33924.3 hPa SSE 3.2 mph /  5.1 km/h 6.4 mph /  10.3 km/h 95 % 1.0 in /  25.4 mm
05:23 9.9 °F /  -12.3 °C 9.1 °F /  -12.7 °C 1001.9 in /  33924.3 hPa SW 4.7 mph /  7.6 km/h 4.8 mph /  7.7 km/h 95 % 0.8 in /  20.32 mm
05:29 9.9 °F /  -12.3 °C 9.1 °F /  -12.7 °C 1001.9 in /  33924.3 hPa Calm   8.0 mph /  12.9 km/h 95 % 1.0 in /  25.4 mm
05:35 9.9 °F /  -12.3 °C 9.1 °F /  -12.7 °C 1001.9 in /  33924.3 hPa SSE 1.4 mph /  2.3 km/h 8.0 mph /  12.9 km/h 95 % 1.0 in /  25.4 mm
05:41 9.9 °F /  -12.3 °C 9.1 °F /  -12.7 °C 1001.9 in /  33924.3 hPa SE 1.4 mph /  2.3 km/h 6.4 mph /  10.3 km/h 95 % 1.0 in /  25.4 mm
05:47 9.9 °F /  -12.3 °C 9.1 °F /  -12.7 °C 1001.9 in /  33924.3 hPa South 3.2 mph /  5.1 km/h 12.9 mph /  20.8 km/h 95 % 1.3 in /  33.02 mm
05:53 9.9 °F /  -12.3 °C 9.1 °F /  -12.7 °C 1001.9 in /  33924.3 hPa SSW 3.2 mph /  5.1 km/h 11.3 mph /  18.2 km/h 95 % 1.5 in /  38.1 mm
05:59 9.9 °F /  -12.3 °C 9.1 °F /  -12.7 °C 1001.9 in /  33924.3 hPa SSE 6.4 mph /  10.3 km/h 17.7 mph /  28.5 km/h 95 % 1.5 in /  38.1 mm
06:05 9.9 °F /  -12.3 °C 9.1 °F /  -12.7 °C 1001.9 in /  33924.3 hPa SSE 4.7 mph /  7.6 km/h 11.3 mph /  18.2 km/h 95 % 1.5 in /  38.1 mm
06:11 9.9 °F /  -12.3 °C 9.1 °F /  -12.7 °C 1001.6 in /  33914.2 hPa SE 3.2 mph /  5.1 km/h 12.9 mph /  20.8 km/h 95 % 1.5 in /  38.1 mm
06:17 9.9 °F /  -12.3 °C 9.1 °F /  -12.7 °C 1001.6 in /  33914.2 hPa SE 11.1 mph /  17.9 km/h 14.5 mph /  23.3 km/h 95 % 1.5 in /  38.1 mm
06:23 9.9 °F /  -12.3 °C 9.1 °F /  -12.7 °C 1001.6 in /  33914.2 hPa SSE 4.7 mph /  7.6 km/h 11.3 mph /  18.2 km/h 95 % 1.8 in /  45.72 mm
06:29 9.9 °F /  -12.3 °C 9.1 °F /  -12.7 °C 1001.6 in /  33914.2 hPa SSE 4.7 mph /  7.6 km/h 12.9 mph /  20.8 km/h 95 % 1.8 in /  45.72 mm
06:35 9.8 °F /  -12.3 °C 9.0 °F /  -12.8 °C 1001.6 in /  33914.2 hPa SE 6.4 mph /  10.3 km/h 11.3 mph /  18.2 km/h 95 % 1.8 in /  45.72 mm
06:41 9.8 °F /  -12.3 °C 9.0 °F /  -12.8 °C 1001.6 in /  33914.2 hPa SSE 3.2 mph /  5.1 km/h 9.7 mph /  15.6 km/h 95 % 1.8 in /  45.72 mm
06:47 9.8 °F /  -12.3 °C 9.0 °F /  -12.8 °C 1001.2 in /  33900.6 hPa SE 3.2 mph /  5.1 km/h 8.0 mph /  12.9 km/h 95 % 1.8 in /  45.72 mm
06:53 9.8 °F /  -12.3 °C 9.0 °F /  -12.8 °C 1001.2 in /  33900.6 hPa SE 4.7 mph /  7.6 km/h 9.7 mph /  15.6 km/h 95 % 1.8 in /  45.72 mm
06:59 9.8 °F /  -12.3 °C 9.0 °F /  -12.8 °C 1001.2 in /  33900.6 hPa SSW 14.3 mph /  23 km/h 14.5 mph /  23.3 km/h 95 % 1.8 in /  45.72 mm
07:05 9.8 °F /  -12.3 °C 9.0 °F /  -12.8 °C 1001.2 in /  33900.6 hPa SSE 4.7 mph /  7.6 km/h 11.3 mph /  18.2 km/h 95 % 1.8 in /  45.72 mm
07:11 9.8 °F /  -12.3 °C 9.0 °F /  -12.8 °C 1001.2 in /  33900.6 hPa SE 3.2 mph /  5.1 km/h 8.0 mph /  12.9 km/h 95 % 1.8 in /  45.72 mm
07:17 9.8 °F /  -12.3 °C 9.0 °F /  -12.8 °C 1001.2 in /  33900.6 hPa SSE 4.7 mph /  7.6 km/h 9.7 mph /  15.6 km/h 95 % 1.8 in /  45.72 mm
07:23 9.8 °F /  -12.3 °C 9.0 °F /  -12.8 °C 1001.2 in /  33900.6 hPa SSE 7.9 mph /  12.7 km/h 11.3 mph /  18.2 km/h 95 % 1.8 in /  45.72 mm
07:29 9.7 °F /  -12.4 °C 8.9 °F /  -12.8 °C 1001.2 in /  33900.6 hPa South 6.4 mph /  10.3 km/h 11.3 mph /  18.2 km/h 95 % 1.5 in /  38.1 mm
07:35 9.7 °F /  -12.4 °C 8.9 °F /  -12.8 °C 1001.2 in /  33900.6 hPa SE 7.9 mph /  12.7 km/h 11.3 mph /  18.2 km/h 95 % 1.5 in /  38.1 mm
07:41 9.7 °F /  -12.4 °C 8.9 °F /  -12.8 °C 1001.2 in /  33900.6 hPa East 3.2 mph /  5.1 km/h 6.4 mph /  10.3 km/h 95 % 1.5 in /  38.1 mm
07:47 9.7 °F /  -12.4 °C 8.9 °F /  -12.8 °C 1001.2 in /  33900.6 hPa SE 4.7 mph /  7.6 km/h 11.3 mph /  18.2 km/h 95 % 1.5 in /  38.1 mm
07:53 9.7 °F /  -12.4 °C 8.9 °F /  -12.8 °C 1001.2 in /  33900.6 hPa ESE 7.9 mph /  12.7 km/h 9.7 mph /  15.6 km/h 95 % 1.3 in /  33.02 mm
07:59 9.7 °F /  -12.4 °C 8.9 °F /  -12.8 °C 1001.2 in /  33900.6 hPa SE 1.4 mph /  2.3 km/h 11.3 mph /  18.2 km/h 95 % 1.5 in /  38.1 mm
08:05 9.7 °F /  -12.4 °C 8.9 °F /  -12.8 °C 1001.2 in /  33900.6 hPa SSE 1.4 mph /  2.3 km/h 8.0 mph /  12.9 km/h 95 % 1.5 in /  38.1 mm
08:11 9.7 °F /  -12.4 °C 8.9 °F /  -12.8 °C 1001.2 in /  33900.6 hPa SE 6.4 mph /  10.3 km/h 8.0 mph /  12.9 km/h 95 % 1.8 in /  45.72 mm
08:17 9.8 °F /  -12.3 °C 9.0 °F /  -12.8 °C 1001.2 in /  33900.6 hPa SE 4.7 mph /  7.6 km/h 8.0 mph /  12.9 km/h 95 % 1.8 in /  45.72 mm
08:23 9.8 °F /  -12.3 °C 9.2 °F /  -12.7 °C 1001.2 in /  33900.6 hPa South 6.4 mph /  10.3 km/h 11.3 mph /  18.2 km/h 96 % 2.0 in /  50.8 mm
08:29 9.8 °F /  -12.3 °C 9.2 °F /  -12.7 °C 1001.2 in /  33900.6 hPa SSE 3.2 mph /  5.1 km/h 6.4 mph /  10.3 km/h 96 % 2.3 in /  58.42 mm
08:35 9.7 °F /  -12.4 °C 9.1 °F /  -12.7 °C 1001.2 in /  33900.6 hPa South 6.4 mph /  10.3 km/h 8.0 mph /  12.9 km/h 96 % 2.0 in /  50.8 mm
08:41 9.8 °F /  -12.3 °C 9.2 °F /  -12.7 °C 1001.2 in /  33900.6 hPa SE 3.2 mph /  5.1 km/h 11.3 mph /  18.2 km/h 96 % 2.3 in /  58.42 mm
08:47 9.8 °F /  -12.3 °C 9.2 °F /  -12.7 °C 1001.2 in /  33900.6 hPa Calm   9.7 mph /  15.6 km/h 96 % 2.0 in /  50.8 mm
08:53 9.8 °F /  -12.3 °C 9.2 °F /  -12.7 °C 1001.2 in /  33900.6 hPa SE 3.2 mph /  5.1 km/h 8.0 mph /  12.9 km/h 96 % 2.0 in /  50.8 mm
08:59 9.8 °F /  -12.3 °C 9.2 °F /  -12.7 °C 1001.2 in /  33900.6 hPa SE 3.2 mph /  5.1 km/h 4.8 mph /  7.7 km/h 96 % 1.5 in /  38.1 mm
09:05 9.8 °F /  -12.3 °C 9.2 °F /  -12.7 °C 1001.2 in /  33900.6 hPa SE 3.2 mph /  5.1 km/h 6.4 mph /  10.3 km/h 96 % 1.3 in /  33.02 mm
09:11 9.8 °F /  -12.3 °C 9.2 °F /  -12.7 °C 1001.2 in /  33900.6 hPa ESE 1.4 mph /  2.3 km/h 4.8 mph /  7.7 km/h 96 % 1.0 in /  25.4 mm
09:17 9.8 °F /  -12.3 °C 9.2 °F /  -12.7 °C 1001.2 in /  33900.6 hPa ESE 3.2 mph /  5.1 km/h 8.0 mph /  12.9 km/h 96 % 1.0 in /  25.4 mm
09:23 9.9 °F /  -12.3 °C 9.3 °F /  -12.6 °C 1001.2 in /  33900.6 hPa SE 3.2 mph /  5.1 km/h 4.8 mph /  7.7 km/h 96 % 0.5 in /  12.7 mm
09:29 9.9 °F /  -12.3 °C 9.3 °F /  -12.6 °C 1001.2 in /  33900.6 hPa SE 9.7 mph /  15.6 km/h 11.3 mph /  18.2 km/h 96 % 0.5 in /  12.7 mm
09:35 10.0 °F /  -12.2 °C 9.4 °F /  -12.6 °C 1001.2 in /  33900.6 hPa SE 4.7 mph /  7.6 km/h 6.4 mph /  10.3 km/h 96 % 0.5 in /  12.7 mm
09:41 10.1 °F /  -12.2 °C 9.5 °F /  -12.5 °C 1001.2 in /  33900.6 hPa Calm   1.6 mph /  2.6 km/h 96 % 0.3 in /  7.62 mm
09:47 10.2 °F /  -12.1 °C 9.6 °F /  -12.4 °C 1001.2 in /  33900.6 hPa SE 3.2 mph /  5.1 km/h 6.4 mph /  10.3 km/h 96 % 0.3 in /  7.62 mm
09:53 10.2 °F /  -12.1 °C 9.6 °F /  -12.4 °C 1001.2 in /  33900.6 hPa ESE 1.4 mph /  2.3 km/h 6.4 mph /  10.3 km/h 96 % 0.3 in /  7.62 mm
09:59 10.3 °F /  -12.1 °C 9.7 °F /  -12.4 °C 1001.6 in /  33914.2 hPa Calm   1.6 mph /  2.6 km/h 96 % 0.3 in /  7.62 mm
10:05 10.3 °F /  -12.1 °C 9.5 °F /  -12.5 °C 1001.6 in /  33914.2 hPa Calm   4.8 mph /  7.7 km/h 95 % 0.3 in /  7.62 mm
10:11 10.5 °F /  -11.9 °C 9.7 °F /  -12.4 °C 1001.6 in /  33914.2 hPa SE 1.4 mph /  2.3 km/h 6.4 mph /  10.3 km/h 95 % 0.3 in /  7.62 mm
10:17 10.7 °F /  -11.8 °C 9.9 °F /  -12.3 °C 1001.2 in /  33900.6 hPa ESE 3.2 mph /  5.1 km/h 6.4 mph /  10.3 km/h 95 % 0.0 in /  0 mm
10:23 10.9 °F /  -11.7 °C 10.0 °F /  -12.2 °C 1001.2 in /  33900.6 hPa SSE 1.4 mph /  2.3 km/h 12.9 mph /  20.8 km/h 94 % 0.0 in /  0 mm
10:29 11.3 °F /  -11.5 °C 10.5 °F /  -11.9 °C 1001.2 in /  33900.6 hPa Calm   4.8 mph /  7.7 km/h 95 % 0.0 in /  0 mm
10:35 11.8 °F /  -11.2 °C 10.9 °F /  -11.7 °C 1001.6 in /  33914.2 hPa SSW 3.2 mph /  5.1 km/h 3.2 mph /  5.1 km/h 94 % 0.0 in /  0 mm
10:41 12.1 °F /  -11.1 °C 10.8 °F /  -11.8 °C 1001.6 in /  33914.2 hPa SSW 7.9 mph /  12.7 km/h 9.7 mph /  15.6 km/h 92 % 0.0 in /  0 mm
10:47 12.4 °F /  -10.9 °C 11.1 °F /  -11.6 °C 1001.6 in /  33914.2 hPa South 3.2 mph /  5.1 km/h 8.0 mph /  12.9 km/h 92 % 0.0 in /  0 mm
10:53 12.4 °F /  -10.9 °C 10.8 °F /  -11.8 °C 1001.6 in /  33914.2 hPa SE 3.2 mph /  5.1 km/h 11.3 mph /  18.2 km/h 90 % 0.0 in /  0 mm
11:00 12.4 °F /  -10.9 °C 10.8 °F /  -11.8 °C 1001.6 in /  33914.2 hPa SSE 1.4 mph /  2.3 km/h 8.0 mph /  12.9 km/h 90 % 0.0 in /  0 mm
11:06 12.4 °F /  -10.9 °C 10.8 °F /  -11.8 °C 1001.6 in /  33914.2 hPa SSE 3.2 mph /  5.1 km/h 9.7 mph /  15.6 km/h 90 % 0.0 in /  0 mm
11:12 12.4 °F /  -10.9 °C 10.8 °F /  -11.8 °C 1001.6 in /  33914.2 hPa SSW 3.2 mph /  5.1 km/h 12.9 mph /  20.8 km/h 90 % 0.0 in /  0 mm
11:18 12.6 °F /  -10.8 °C 11.0 °F /  -11.7 °C 1001.6 in /  33914.2 hPa SSE 1.4 mph /  2.3 km/h 9.7 mph /  15.6 km/h 90 % 0.0 in /  0 mm
11:24 12.7 °F /  -10.7 °C 11.1 °F /  -11.6 °C 1001.6 in /  33914.2 hPa SE 7.9 mph /  12.7 km/h 8.0 mph /  12.9 km/h 90 % 0.0 in /  0 mm
11:30 13.0 °F /  -10.6 °C 11.4 °F /  -11.4 °C 1001.6 in /  33914.2 hPa SSE 6.4 mph /  10.3 km/h 8.0 mph /  12.9 km/h 90 % 0.0 in /  0 mm
11:36 13.3 °F /  -10.4 °C 11.5 °F /  -11.4 °C 1001.6 in /  33914.2 hPa SE 6.4 mph /  10.3 km/h 11.3 mph /  18.2 km/h 89 % 0.0 in /  0 mm
11:42 13.6 °F /  -10.2 °C 11.6 °F /  -11.3 °C 1001.6 in /  33914.2 hPa SSE 4.7 mph /  7.6 km/h 9.7 mph /  15.6 km/h 88 % 0.0 in /  0 mm
11:48 13.7 °F /  -10.2 °C 11.6 °F /  -11.3 °C 1001.6 in /  33914.2 hPa SE 3.2 mph /  5.1 km/h 11.3 mph /  18.2 km/h 87 % 0.0 in /  0 mm
11:54 14.2 °F /  -9.9 °C 12.1 °F /  -11.1 °C 1001.6 in /  33914.2 hPa SSE 4.7 mph /  7.6 km/h 9.7 mph /  15.6 km/h 87 % 0.0 in /  0 mm
12:00 14.4 °F /  -9.8 °C 12.1 °F /  -11.1 °C 1001.6 in /  33914.2 hPa SSE 3.2 mph /  5.1 km/h 11.3 mph /  18.2 km/h 86 % 0.0 in /  0 mm
12:06 14.7 °F /  -9.6 °C 12.0 °F /  -11.1 °C 1001.6 in /  33914.2 hPa SSE 4.7 mph /  7.6 km/h 14.5 mph /  23.3 km/h 84 % 0.0 in /  0 mm
12:12 15.0 °F /  -9.4 °C 12.1 °F /  -11.1 °C 1001.6 in /  33914.2 hPa South 6.4 mph /  10.3 km/h 12.9 mph /  20.8 km/h 83 % 0.0 in /  0 mm
12:18 15.3 °F /  -9.3 °C 12.4 °F /  -10.9 °C 1001.6 in /  33914.2 hPa SE 7.9 mph /  12.7 km/h 12.9 mph /  20.8 km/h 83 % 0.0 in /  0 mm
12:24 15.7 °F /  -9.1 °C 12.6 °F /  -10.8 °C 1001.2 in /  33900.6 hPa SSE 4.7 mph /  7.6 km/h 9.7 mph /  15.6 km/h 82 % 0.0 in /  0 mm
12:30 15.9 °F /  -8.9 °C 12.6 °F /  -10.8 °C 1001.2 in /  33900.6 hPa SE 4.7 mph /  7.6 km/h 12.9 mph /  20.8 km/h 81 % 0.0 in /  0 mm
12:36 16.4 °F /  -8.7 °C 12.9 °F /  -10.6 °C 1001.2 in /  33900.6 hPa SSE 7.9 mph /  12.7 km/h 11.3 mph /  18.2 km/h 80 % 0.0 in /  0 mm
12:42 16.8 °F /  -8.4 °C 13.1 °F /  -10.5 °C 1001.2 in /  33900.6 hPa SSW 13.0 mph /  20.9 km/h 16.1 mph /  25.9 km/h 79 % 0.0 in /  0 mm
12:48 17.1 °F /  -8.3 °C 13.2 °F /  -10.4 °C 1001.2 in /  33900.6 hPa SW 4.7 mph /  7.6 km/h 12.9 mph /  20.8 km/h 78 % 0.0 in /  0 mm
12:54 17.1 °F /  -8.3 °C 13.0 °F /  -10.6 °C 1001.2 in /  33900.6 hPa South 14.3 mph /  23 km/h 16.1 mph /  25.9 km/h 77 % 0.0 in /  0 mm
13:00 17.1 °F /  -8.3 °C 12.6 °F /  -10.8 °C 1001.2 in /  33900.6 hPa SSW 13.0 mph /  20.9 km/h 17.7 mph /  28.5 km/h 75 % 0.0 in /  0 mm
13:06 17.2 °F /  -8.2 °C 12.9 °F /  -10.6 °C 1001.2 in /  33900.6 hPa SSW 7.9 mph /  12.7 km/h 14.5 mph /  23.3 km/h 76 % 0.0 in /  0 mm
13:12 17.2 °F /  -8.2 °C 12.9 °F /  -10.6 °C 1001.2 in /  33900.6 hPa SSW 14.3 mph /  23 km/h 17.7 mph /  28.5 km/h 76 % 0.0 in /  0 mm
13:18 17.3 °F /  -8.2 °C 12.8 °F /  -10.7 °C 1001.2 in /  33900.6 hPa SSE 7.9 mph /  12.7 km/h 17.7 mph /  28.5 km/h 75 % 0.0 in /  0 mm
13:24 17.4 °F /  -8.1 °C 12.9 °F /  -10.6 °C 1001.2 in /  33900.6 hPa SW 14.3 mph /  23 km/h 14.5 mph /  23.3 km/h 75 % 0.0 in /  0 mm
13:30 17.7 °F /  -7.9 °C 12.2 °F /  -11 °C 1000.9 in /  33890.5 hPa SW 25.9 mph /  41.7 km/h 25.9 mph /  41.7 km/h 70 % 0.0 in /  0 mm
13:36 17.9 °F /  -7.8 °C 11.0 °F /  -11.7 °C 1000.9 in /  33890.5 hPa SW 22.7 mph /  36.5 km/h 27.4 mph /  44.1 km/h 64 % 0.0 in /  0 mm
13:42 18.1 °F /  -7.7 °C 11.4 °F /  -11.4 °C 1000.9 in /  33890.5 hPa SW 13.0 mph /  20.9 km/h 24.1 mph /  38.8 km/h 65 % 0.0 in /  0 mm
13:48 18.1 °F /  -7.7 °C 11.4 °F /  -11.4 °C 1000.9 in /  33890.5 hPa SW 14.3 mph /  23 km/h 25.7 mph /  41.4 km/h 65 % 0.0 in /  0 mm
13:54 18.1 °F /  -7.7 °C 11.4 °F /  -11.4 °C 1000.9 in /  33890.5 hPa WSW 13.0 mph /  20.9 km/h 13.0 mph /  20.9 km/h 65 % 0.0 in /  0 mm
14:00 18.2 °F /  -7.7 °C 11.5 °F /  -11.4 °C 1000.9 in /  33890.5 hPa West 9.7 mph /  15.6 km/h 14.5 mph /  23.3 km/h 65 % 0.0 in /  0 mm
14:06 18.3 °F /  -7.6 °C 11.6 °F /  -11.3 °C 1000.9 in /  33890.5 hPa SW 11.1 mph /  17.9 km/h 16.1 mph /  25.9 km/h 65 % 0.0 in /  0 mm
14:12 18.3 °F /  -7.6 °C 11.8 °F /  -11.2 °C 1000.6 in /  33880.3 hPa SW 14.3 mph /  23 km/h 17.7 mph /  28.5 km/h 66 % 0.0 in /  0 mm
14:18 18.4 °F /  -7.6 °C 11.7 °F /  -11.3 °C 1000.6 in /  33880.3 hPa SW 11.1 mph /  17.9 km/h 16.1 mph /  25.9 km/h 65 % 0.0 in /  0 mm
14:24 18.4 °F /  -7.6 °C 11.7 °F /  -11.3 °C 1000.6 in /  33880.3 hPa WSW 7.9 mph /  12.7 km/h 14.5 mph /  23.3 km/h 65 % 0.0 in /  0 mm
14:30 18.4 °F /  -7.6 °C 11.2 °F /  -11.6 °C 1000.6 in /  33880.3 hPa SW 13.0 mph /  20.9 km/h 20.9 mph /  33.6 km/h 63 % 0.0 in /  0 mm
14:36 18.3 °F /  -7.6 °C 11.1 °F /  -11.6 °C 1000.6 in /  33880.3 hPa SW 11.1 mph /  17.9 km/h 17.7 mph /  28.5 km/h 63 % 0.0 in /  0 mm
14:42 18.2 °F /  -7.7 °C 11.3 °F /  -11.5 °C 1000.6 in /  33880.3 hPa SW 11.1 mph /  17.9 km/h 14.5 mph /  23.3 km/h 64 % 0.0 in /  0 mm
14:48 18.2 °F /  -7.7 °C 11.3 °F /  -11.5 °C 1000.9 in /  33890.5 hPa West 11.1 mph /  17.9 km/h 19.3 mph /  31.1 km/h 64 % 0.0 in /  0 mm
14:54 18.1 °F /  -7.7 °C 11.2 °F /  -11.6 °C 1000.9 in /  33890.5 hPa West 7.9 mph /  12.7 km/h 16.1 mph /  25.9 km/h 64 % 0.0 in /  0 mm
15:00 17.8 °F /  -7.9 °C 11.4 °F /  -11.4 °C 1000.9 in /  33890.5 hPa West 7.9 mph /  12.7 km/h 12.9 mph /  20.8 km/h 66 % 0.0 in /  0 mm
15:06 17.6 °F /  -8 °C 11.6 °F /  -11.3 °C 1000.9 in /  33890.5 hPa WSW 6.4 mph /  10.3 km/h 6.4 mph /  10.3 km/h 68 % 0.0 in /  0 mm
15:12 17.5 °F /  -8.1 °C 11.3 °F /  -11.5 °C 1000.9 in /  33890.5 hPa SW 1.4 mph /  2.3 km/h 8.0 mph /  12.9 km/h 67 % 0.0 in /  0 mm
15:18 17.5 °F /  -8.1 °C 11.5 °F /  -11.4 °C 1000.9 in /  33890.5 hPa WSW 1.4 mph /  2.3 km/h 4.8 mph /  7.7 km/h 68 % 0.0 in /  0 mm
15:24 17.4 °F /  -8.1 °C 11.4 °F /  -11.4 °C 1000.9 in /  33890.5 hPa SW 3.2 mph /  5.1 km/h 6.4 mph /  10.3 km/h 68 % 0.0 in /  0 mm
15:30 17.4 °F /  -8.1 °C 11.7 °F /  -11.3 °C 1000.9 in /  33890.5 hPa WSW 4.7 mph /  7.6 km/h 4.8 mph /  7.7 km/h 69 % 0.0 in /  0 mm
15:36 17.4 °F /  -8.1 °C 11.4 °F /  -11.4 °C 1000.9 in /  33890.5 hPa SSW 3.2 mph /  5.1 km/h 4.8 mph /  7.7 km/h 68 % 0.0 in /  0 mm
15:42 17.3 °F /  -8.2 °C 11.6 °F /  -11.3 °C 1000.6 in /  33880.3 hPa SW 3.2 mph /  5.1 km/h 3.2 mph /  5.1 km/h 69 % 0.0 in /  0 mm
15:48 17.3 °F /  -8.2 °C 11.8 °F /  -11.2 °C 1000.6 in /  33880.3 hPa SW 1.4 mph /  2.3 km/h 4.8 mph /  7.7 km/h 70 % 0.0 in /  0 mm
15:54 17.3 °F /  -8.2 °C 11.8 °F /  -11.2 °C 1000.9 in /  33890.5 hPa SSW 3.2 mph /  5.1 km/h 3.2 mph /  5.1 km/h 70 % 0.0 in /  0 mm
16:00 17.4 °F /  -8.1 °C 11.9 °F /  -11.2 °C 1000.6 in /  33880.3 hPa SW 1.4 mph /  2.3 km/h 4.8 mph /  7.7 km/h 70 % 0.0 in /  0 mm
16:06 17.8 °F /  -7.9 °C 12.3 °F /  -10.9 °C 1000.6 in /  33880.3 hPa South 3.2 mph /  5.1 km/h 6.4 mph /  10.3 km/h 70 % 0.0 in /  0 mm
16:12 18.0 °F /  -7.8 °C 12.4 °F /  -10.9 °C 1000.6 in /  33880.3 hPa SW 1.4 mph /  2.3 km/h 4.8 mph /  7.7 km/h 70 % 0.0 in /  0 mm
16:18 18.2 °F /  -7.7 °C 12.6 °F /  -10.8 °C 1000.6 in /  33880.3 hPa SSW 3.2 mph /  5.1 km/h 4.8 mph /  7.7 km/h 70 % 0.0 in /  0 mm
16:24 18.2 °F /  -7.7 °C 12.9 °F /  -10.6 °C 1000.6 in /  33880.3 hPa Calm   1.6 mph /  2.6 km/h 71 % 0.0 in /  0 mm
16:31 18.2 °F /  -7.7 °C 12.6 °F /  -10.8 °C 1000.6 in /  33880.3 hPa SSW 3.2 mph /  5.1 km/h 4.8 mph /  7.7 km/h 70 % 0.0 in /  0 mm
16:37 18.0 °F /  -7.8 °C 12.7 °F /  -10.7 °C 1000.6 in /  33880.3 hPa WSW 3.2 mph /  5.1 km/h 4.8 mph /  7.7 km/h 71 % 0.0 in /  0 mm
16:43 17.9 °F /  -7.8 °C 12.4 °F /  -10.9 °C 1000.6 in /  33880.3 hPa SSW 1.4 mph /  2.3 km/h 3.2 mph /  5.1 km/h 70 % 0.0 in /  0 mm
16:49 17.8 °F /  -7.9 °C 12.3 °F /  -10.9 °C 1000.6 in /  33880.3 hPa SW 4.7 mph /  7.6 km/h 6.4 mph /  10.3 km/h 70 % 0.0 in /  0 mm
16:55 17.7 °F /  -7.9 °C 12.4 °F /  -10.9 °C 1000.6 in /  33880.3 hPa SSW 1.4 mph /  2.3 km/h 4.8 mph /  7.7 km/h 71 % 0.0 in /  0 mm
17:01 17.6 °F /  -8 °C 12.9 °F /  -10.6 °C 1000.6 in /  33880.3 hPa SW 4.7 mph /  7.6 km/h 4.8 mph /  7.7 km/h 74 % 0.0 in /  0 mm
17:07 17.3 °F /  -8.2 °C 12.8 °F /  -10.7 °C 1000.6 in /  33880.3 hPa SW 1.4 mph /  2.3 km/h 4.8 mph /  7.7 km/h 75 % 0.0 in /  0 mm
17:13 17.2 °F /  -8.2 °C 12.5 °F /  -10.8 °C 1000.6 in /  33880.3 hPa SW 3.2 mph /  5.1 km/h 4.8 mph /  7.7 km/h 74 % 0.0 in /  0 mm
17:19 17.1 °F /  -8.3 °C 12.6 °F /  -10.8 °C 1000.6 in /  33880.3 hPa SW 3.2 mph /  5.1 km/h 4.8 mph /  7.7 km/h 75 % 0.0 in /  0 mm
17:25 16.9 °F /  -8.4 °C 12.8 °F /  -10.7 °C 1000.6 in /  33880.3 hPa SSW 3.2 mph /  5.1 km/h 6.4 mph /  10.3 km/h 77 % 0.0 in /  0 mm
17:31 16.7 °F /  -8.5 °C 12.6 °F /  -10.8 °C 1000.6 in /  33880.3 hPa SW 7.9 mph /  12.7 km/h 8.0 mph /  12.9 km/h 77 % 0.0 in /  0 mm
17:37 16.6 °F /  -8.6 °C 12.6 °F /  -10.8 °C 1000.6 in /  33880.3 hPa SSW 7.9 mph /  12.7 km/h 9.7 mph /  15.6 km/h 77 % 0.0 in /  0 mm
17:43 16.3 °F /  -8.7 °C 12.3 °F /  -10.9 °C 1000.6 in /  33880.3 hPa SW 7.9 mph /  12.7 km/h 9.7 mph /  15.6 km/h 77 % 0.0 in /  0 mm
17:49 16.1 °F /  -8.8 °C 12.3 °F /  -10.9 °C 1000.6 in /  33880.3 hPa SW 3.2 mph /  5.1 km/h 8.0 mph /  12.9 km/h 78 % 0.0 in /  0 mm
17:55 16.3 °F /  -8.7 °C 12.1 °F /  -11.1 °C 1000.6 in /  33880.3 hPa SW 9.7 mph /  15.6 km/h 9.7 mph /  15.6 km/h 76 % 0.0 in /  0 mm
18:01 16.4 °F /  -8.7 °C 12.0 °F /  -11.1 °C 1000.6 in /  33880.3 hPa SW 9.7 mph /  15.6 km/h 12.9 mph /  20.8 km/h 75 % 0.0 in /  0 mm
18:07 16.3 °F /  -8.7 °C 12.3 °F /  -10.9 °C 1000.6 in /  33880.3 hPa SW 7.9 mph /  12.7 km/h 9.7 mph /  15.6 km/h 77 % 0.0 in /  0 mm
18:13 15.9 °F /  -8.9 °C 12.3 °F /  -10.9 °C 1000.6 in /  33880.3 hPa SSW 4.7 mph /  7.6 km/h 6.4 mph /  10.3 km/h 79 % 0.0 in /  0 mm
18:19 15.7 °F /  -9.1 °C 12.1 °F /  -11.1 °C 1000.6 in /  33880.3 hPa SW 4.7 mph /  7.6 km/h 6.4 mph /  10.3 km/h 79 % 0.0 in /  0 mm
18:25 15.6 °F /  -9.1 °C 12.0 °F /  -11.1 °C 1000.6 in /  33880.3 hPa SSW 4.7 mph /  7.6 km/h 6.4 mph /  10.3 km/h 79 % 0.0 in /  0 mm
18:31 15.4 °F /  -9.2 °C 12.0 °F /  -11.1 °C 1000.6 in /  33880.3 hPa South 1.4 mph /  2.3 km/h 3.2 mph /  5.1 km/h 80 % 0.0 in /  0 mm
18:37 15.2 °F /  -9.3 °C 12.0 °F /  -11.1 °C 1000.6 in /  33880.3 hPa South 1.4 mph /  2.3 km/h 1.6 mph /  2.6 km/h 81 % 0.0 in /  0 mm
18:43 14.9 °F /  -9.5 °C 11.9 °F /  -11.2 °C 1000.6 in /  33880.3 hPa SSW 1.4 mph /  2.3 km/h 3.2 mph /  5.1 km/h 82 % 0.0 in /  0 mm
18:49 14.8 °F /  -9.6 °C 11.9 °F /  -11.2 °C 1000.6 in /  33880.3 hPa SSW 1.4 mph /  2.3 km/h 3.2 mph /  5.1 km/h 83 % 0.3 in /  7.62 mm
18:55 14.6 °F /  -9.7 °C 12.1 °F /  -11.1 °C 1000.9 in /  33890.5 hPa Calm   1.6 mph /  2.6 km/h 85 % 0.3 in /  7.62 mm
19:01 14.3 °F /  -9.8 °C 12.0 °F /  -11.1 °C 1000.9 in /  33890.5 hPa SSW 3.2 mph /  5.1 km/h 3.2 mph /  5.1 km/h 86 % 0.5 in /  12.7 mm
19:07 14.2 °F /  -9.9 °C 11.9 °F /  -11.2 °C 1000.9 in /  33890.5 hPa SSW 4.7 mph /  7.6 km/h 4.8 mph /  7.7 km/h 86 % 0.5 in /  12.7 mm
19:13 14.1 °F /  -9.9 °C 12.0 °F /  -11.1 °C 1000.9 in /  33890.5 hPa SW 6.4 mph /  10.3 km/h 6.4 mph /  10.3 km/h 87 % 0.5 in /  12.7 mm
19:19 13.9 °F /  -10.1 °C 11.8 °F /  -11.2 °C 1000.9 in /  33890.5 hPa SW 6.4 mph /  10.3 km/h 8.0 mph /  12.9 km/h 87 % 0.5 in /  12.7 mm
19:25 13.8 °F /  -10.1 °C 11.8 °F /  -11.2 °C 1000.9 in /  33890.5 hPa SW 4.7 mph /  7.6 km/h 6.4 mph /  10.3 km/h 88 % 0.5 in /  12.7 mm
19:31 13.8 °F /  -10.1 °C 11.8 °F /  -11.2 °C 1000.9 in /  33890.5 hPa SW 4.7 mph /  7.6 km/h 6.4 mph /  10.3 km/h 88 % 0.5 in /  12.7 mm
19:37 13.8 °F /  -10.1 °C 11.8 °F /  -11.2 °C 1000.9 in /  33890.5 hPa SSW 1.4 mph /  2.3 km/h 6.4 mph /  10.3 km/h 88 % 0.5 in /  12.7 mm
19:43 13.6 °F /  -10.2 °C 11.8 °F /  -11.2 °C 1000.6 in /  33880.3 hPa South 1.4 mph /  2.3 km/h 6.4 mph /  10.3 km/h 89 % 0.5 in /  12.7 mm
19:55 13.5 °F /  -10.3 °C 11.7 °F /  -11.3 °C 1000.6 in /  33880.3 hPa SSW 1.4 mph /  2.3 km/h 1.6 mph /  2.6 km/h 89 % 0.5 in /  12.7 mm
20:01 13.4 °F /  -10.3 °C 11.8 °F /  -11.2 °C 1000.6 in /  33880.3 hPa SW 1.4 mph /  2.3 km/h 1.6 mph /  2.6 km/h 90 % 0.3 in /  7.62 mm
20:07 13.3 °F /  -10.4 °C 11.7 °F /  -11.3 °C 1000.6 in /  33880.3 hPa Calm   1.6 mph /  2.6 km/h 90 % 0.3 in /  7.62 mm
20:13 13.4 °F /  -10.3 °C 11.8 °F /  -11.2 °C 1000.6 in /  33880.3 hPa SSW 1.4 mph /  2.3 km/h 3.2 mph /  5.1 km/h 90 % 0.3 in /  7.62 mm
20:19 13.3 °F /  -10.4 °C 11.7 °F /  -11.3 °C 1000.2 in /  33866.8 hPa SSW 1.4 mph /  2.3 km/h 1.6 mph /  2.6 km/h 90 % 0.3 in /  7.62 mm
20:25 13.3 °F /  -10.4 °C 11.7 °F /  -11.3 °C 1000.2 in /  33866.8 hPa SW 1.4 mph /  2.3 km/h 1.6 mph /  2.6 km/h 90 % 0.0 in /  0 mm
20:31 13.3 °F /  -10.4 °C 11.7 °F /  -11.3 °C 1000.2 in /  33866.8 hPa Calm   1.6 mph /  2.6 km/h 90 % 0.0 in /  0 mm
20:37 13.4 °F /  -10.3 °C 11.8 °F /  -11.2 °C 1000.2 in /  33866.8 hPa SW 1.4 mph /  2.3 km/h 3.2 mph /  5.1 km/h 90 % 0.0 in /  0 mm
20:43 13.3 °F /  -10.4 °C 11.7 °F /  -11.3 °C 999.9 in /  33856.6 hPa Calm   1.6 mph /  2.6 km/h 90 % 0.3 in /  7.62 mm
20:49 13.3 °F /  -10.4 °C 11.7 °F /  -11.3 °C 999.9 in /  33856.6 hPa Calm   1.6 mph /  2.6 km/h 90 % 0.3 in /  7.62 mm
20:55 13.1 °F /  -10.5 °C 11.5 °F /  -11.4 °C 999.9 in /  33856.6 hPa Calm   1.6 mph /  2.6 km/h 90 % 0.3 in /  7.62 mm
21:02 13.1 °F /  -10.5 °C 11.5 °F /  -11.4 °C 999.5 in /  33843.1 hPa Calm     90 % 0.3 in /  7.62 mm
21:08 13.2 °F /  -10.4 °C 11.6 °F /  -11.3 °C 999.5 in /  33843.1 hPa Calm   1.6 mph /  2.6 km/h 90 % 0.3 in /  7.62 mm
21:14 13.2 °F /  -10.4 °C 11.6 °F /  -11.3 °C 999.2 in /  33832.9 hPa Calm   1.6 mph /  2.6 km/h 90 % 0.3 in /  7.62 mm
21:20 13.1 °F /  -10.5 °C 11.5 °F /  -11.4 °C 999.5 in /  33843.1 hPa ENE 1.4 mph /  2.3 km/h 1.6 mph /  2.6 km/h 90 % 0.3 in /  7.62 mm
21:26 13.0 °F /  -10.6 °C 11.4 °F /  -11.4 °C 999.5 in /  33843.1 hPa SE 1.4 mph /  2.3 km/h 4.8 mph /  7.7 km/h 90 % 0.3 in /  7.62 mm
21:32 12.9 °F /  -10.6 °C 11.5 °F /  -11.4 °C 999.9 in /  33856.6 hPa SSE 6.4 mph /  10.3 km/h 8.0 mph /  12.9 km/h 91 % 0.3 in /  7.62 mm
21:38 13.1 °F /  -10.5 °C 11.7 °F /  -11.3 °C 1000.2 in /  33866.8 hPa SE 7.9 mph /  12.7 km/h 12.9 mph /  20.8 km/h 91 % 0.5 in /  12.7 mm
21:44 13.2 °F /  -10.4 °C 11.8 °F /  -11.2 °C 999.9 in /  33856.6 hPa SE 4.7 mph /  7.6 km/h 12.9 mph /  20.8 km/h 91 % 0.5 in /  12.7 mm
21:50 13.2 °F /  -10.4 °C 11.8 °F /  -11.2 °C 999.9 in /  33856.6 hPa SE 13.0 mph /  20.9 km/h 17.7 mph /  28.5 km/h 91 % 0.8 in /  20.32 mm
21:56 13.1 °F /  -10.5 °C 11.7 °F /  -11.3 °C 999.9 in /  33856.6 hPa SE 3.2 mph /  5.1 km/h 14.5 mph /  23.3 km/h 91 % 1.3 in /  33.02 mm
22:02 13.1 °F /  -10.5 °C 11.8 °F /  -11.2 °C 999.9 in /  33856.6 hPa SE 3.2 mph /  5.1 km/h 11.3 mph /  18.2 km/h 92 % 1.3 in /  33.02 mm
22:08 13.0 °F /  -10.6 °C 11.7 °F /  -11.3 °C 999.9 in /  33856.6 hPa Calm   6.4 mph /  10.3 km/h 92 % 1.3 in /  33.02 mm
22:14 12.9 °F /  -10.6 °C 11.6 °F /  -11.3 °C 999.5 in /  33843.1 hPa SE 1.4 mph /  2.3 km/h 4.8 mph /  7.7 km/h 92 % 1.3 in /  33.02 mm
22:20 12.8 °F /  -10.7 °C 11.7 °F /  -11.3 °C 999.5 in /  33843.1 hPa ESE 3.2 mph /  5.1 km/h 4.8 mph /  7.7 km/h 93 % 1.5 in /  38.1 mm
22:26 12.8 °F /  -10.7 °C 11.7 °F /  -11.3 °C 999.5 in /  33843.1 hPa Calm   1.6 mph /  2.6 km/h 93 % 1.5 in /  38.1 mm
22:32 12.7 °F /  -10.7 °C 11.6 °F /  -11.3 °C 999.2 in /  33832.9 hPa Calm     93 % 1.5 in /  38.1 mm
22:38 12.7 °F /  -10.7 °C 11.6 °F /  -11.3 °C 999.2 in /  33832.9 hPa WSW 1.4 mph /  2.3 km/h 1.6 mph /  2.6 km/h 93 % 1.3 in /  33.02 mm
22:44 12.7 °F /  -10.7 °C 11.8 °F /  -11.2 °C 999.2 in /  33832.9 hPa Calm     94 % 1.0 in /  25.4 mm
22:50 12.6 °F /  -10.8 °C 11.7 °F /  -11.3 °C 999.2 in /  33832.9 hPa East 3.2 mph /  5.1 km/h 4.8 mph /  7.7 km/h 94 % 0.5 in /  12.7 mm
22:56 12.6 °F /  -10.8 °C 11.7 °F /  -11.3 °C 998.9 in /  33822.8 hPa Calm   1.6 mph /  2.6 km/h 94 % 0.5 in /  12.7 mm
23:02 12.5 °F /  -10.8 °C 11.6 °F /  -11.3 °C 998.9 in /  33822.8 hPa Calm     94 % 0.5 in /  12.7 mm
23:08 12.5 °F /  -10.8 °C 11.6 °F /  -11.3 °C 998.9 in /  33822.8 hPa Calm     94 % 0.5 in /  12.7 mm
23:14 12.4 °F /  -10.9 °C 11.5 °F /  -11.4 °C 998.9 in /  33822.8 hPa ENE 1.4 mph /  2.3 km/h 1.6 mph /  2.6 km/h 94 % 0.5 in /  12.7 mm
23:20 12.3 °F /  -10.9 °C 11.4 °F /  -11.4 °C 998.5 in /  33809.2 hPa North 1.4 mph /  2.3 km/h 1.6 mph /  2.6 km/h 94 % 0.3 in /  7.62 mm
23:26 12.2 °F /  -11 °C 11.3 °F /  -11.5 °C 998.5 in /  33809.2 hPa WNW 1.4 mph /  2.3 km/h 1.6 mph /  2.6 km/h 94 % 0.3 in /  7.62 mm
23:32 12.2 °F /  -11 °C 11.4 °F /  -11.4 °C 998.5 in /  33809.2 hPa NW 1.4 mph /  2.3 km/h 3.2 mph /  5.1 km/h 95 % 0.0 in /  0 mm
23:38 12.3 °F /  -10.9 °C 11.5 °F /  -11.4 °C 998.5 in /  33809.2 hPa NNE 3.2 mph /  5.1 km/h 3.2 mph /  5.1 km/h 95 % 0.0 in /  0 mm
23:44 12.3 °F /  -10.9 °C 11.5 °F /  -11.4 °C 998.2 in /  33799.1 hPa North 1.4 mph /  2.3 km/h 3.2 mph /  5.1 km/h 95 % 0.0 in /  0 mm
23:50 12.2 °F /  -11 °C 11.4 °F /  -11.4 °C 998.2 in /  33799.1 hPa Calm     95 % 0.0 in /  0 mm
23:56 12.1 °F /  -11.1 °C 11.3 °F /  -11.5 °C 998.2 in /  33799.1 hPa NNW 1.4 mph /  2.3 km/h 1.6 mph /  2.6 km/h 95 % 0.0 in /  0 mm
Meteo18
Compliments of Weather Underground - 4 mb

Script developed by  Jim McMurry - jmcmurry@mwt.net Adapted for the template by  Wim van der Kuil - Leuven-Template.eu

You find our weather info also at:

European Weather Network

Weather Underground

Equipment we use:

Weather-station
Davis Vue

Weather-program
Meteobridge

Weather-server
Raspberry PI 2 B+

Provider
1 and 1

Davis Vue

Meteobridge

Raspberry PI 2 B+

1 and 1